Time;durP1;ratioP1;P1;durP2;ratioP2;P2;SDS_P1;SDS_P2;PMS_P1;PMS_P2;Temp;Humidity;BMP_temperature;BMP_pressure;BME280_temperature;BME280_humidity;BME280_pressure;Samples;Min_cycle;Max_cycle;Signal;HPM_P1;HPM_P2
2022/10/12 00:01:44;;;;;;;15.23;12.40;;;;;;;11.05;85.90;96284.83;1751555;82;21023;-65
2022/10/12 00:04:11;;;;;;;20.00;13.10;;;;;;;11.00;86.55;96287.51;1751889;82;21083;-65
2022/10/12 00:06:38;;;;;;;17.92;13.03;;;;;;;11.03;86.90;96287.47;1751341;82;21031;-65
2022/10/12 00:09:05;;;;;;;19.87;12.20;;;;;;;11.09;86.86;96288.30;1751567;82;21011;-65
2022/10/12 00:11:32;;;;;;;17.92;11.12;;;;;;;11.10;86.71;96285.66;1751500;82;21047;-65
2022/10/12 00:13:59;;;;;;;16.62;11.93;;;;;;;11.07;86.50;96290.11;1751422;82;20984;-65
2022/10/12 00:16:30;;;;;;;22.07;11.12;;;;;;;11.00;86.70;96286.64;1751979;82;21480;-65
2022/10/12 00:18:56;;;;;;;17.20;11.63;;;;;;;10.94;86.63;96289.35;1751549;82;20999;-65
2022/10/12 00:21:24;;;;;;;14.80;11.18;;;;;;;10.87;86.66;96290.28;1751841;82;21063;-65
2022/10/12 00:23:51;;;;;;;22.42;11.97;;;;;;;10.83;87.11;96296.02;1751828;82;21019;-65
2022/10/12 00:26:22;;;;;;;20.92;13.25;;;;;;;10.83;87.25;96288.09;1751773;82;21468;-65
2022/10/12 00:28:55;;;;;;;15.32;11.12;;;;;;;10.81;87.16;96292.09;1751846;82;20995;-65
2022/10/12 00:31:22;;;;;;;16.37;11.48;;;;;;;10.79;87.59;96287.72;1752146;82;21018;-65
2022/10/12 00:33:48;;;;;;;15.80;10.65;;;;;;;10.77;87.28;96287.72;1751553;82;21007;-65
2022/10/12 00:36:20;;;;;;;16.73;10.63;;;;;;;10.76;86.89;96283.34;1751631;82;21114;-65
2022/10/12 00:38:48;;;;;;;19.80;11.45;;;;;;;10.76;86.77;96283.75;1750173;82;21079;-65
2022/10/12 00:41:17;;;;;;;17.17;10.70;;;;;;;10.75;87.69;96282.89;1751715;82;21082;-65
2022/10/12 00:43:46;;;;;;;16.32;11.18;;;;;;;10.79;88.18;96279.80;1751810;82;21003;-65
2022/10/12 00:46:41;;;;;;;17.87;12.88;;;;;;;10.80;88.44;96287.69;1751738;82;21549;-65
2022/10/12 00:49:19;;;;;;;16.07;11.03;;;;;;;10.85;88.11;96281.50;1751432;82;21505;-65
2022/10/12 00:51:53;;;;;;;18.73;11.65;;;;;;;10.88;87.71;96282.78;1751767;82;21063;-65
2022/10/12 00:54:28;;;;;;;20.55;11.22;;;;;;;10.87;87.80;96279.28;1751607;82;21007;-65
2022/10/12 00:56:57;;;;;;;18.67;10.82;;;;;;;10.85;87.58;96276.22;1751796;82;21110;-65
2022/10/12 00:59:29;;;;;;;12.53;10.68;;;;;;;10.92;87.95;96276.60;1751830;82;20991;-65
2022/10/12 01:01:56;;;;;;;24.23;10.32;;;;;;;11.07;88.21;96271.63;1751781;82;21088;-65
2022/10/12 01:04:23;;;;;;;15.13;10.48;;;;;;;11.04;87.07;96266.80;1751592;82;21050;-65
2022/10/12 01:06:51;;;;;;;15.08;10.35;;;;;;;11.01;86.72;96273.86;1751824;82;21030;-65
2022/10/12 01:09:20;;;;;;;13.58;10.68;;;;;;;11.00;87.45;96271.66;1751624;82;21031;-65
2022/10/12 01:11:47;;;;;;;13.85;10.58;;;;;;;11.08;87.69;96272.91;1751739;82;21544;-65
2022/10/12 01:14:15;;;;;;;16.37;12.00;;;;;;;11.08;87.45;96274.69;1751827;82;21019;-65
2022/10/12 01:17:07;;;;;;;17.30;11.75;;;;;;;11.10;87.52;96276.88;1751600;82;21054;-65
2022/10/12 01:19:48;;;;;;;18.10;12.37;;;;;;;11.16;87.35;96271.09;1751767;82;21011;-65
2022/10/12 01:22:19;;;;;;;19.57;11.75;;;;;;;11.21;87.07;96269.28;1751759;82;21050;-65
2022/10/12 01:25:18;;;;;;;20.48;11.60;;;;;;;11.15;86.39;96270.64;1751840;82;20964;-65
2022/10/12 01:28:02;;;;;;;15.63;10.60;;;;;;;11.09;86.75;96269.81;1741704;82;21043;-65
2022/10/12 01:30:35;;;;;;;14.85;10.48;;;;;;;11.15;87.52;96267.14;1751351;82;21031;-65
2022/10/12 01:33:05;;;;;;;;;;;;;;;11.21;86.90;96264.41;1727031;82;21051;-65
2022/10/12 01:36:13;;;;;;;15.85;9.70;;;;;;;11.19;86.77;96264.91;1752021;82;20087;-65
2022/10/12 01:38:53;;;;;;;16.25;10.88;;;;;;;11.24;87.23;96268.38;1751753;82;20996;-65
2022/10/12 01:41:25;;;;;;;16.42;9.93;;;;;;;11.31;86.83;96269.16;1751859;82;21079;-65
2022/10/12 01:43:52;;;;;;;16.62;10.58;;;;;;;11.24;86.48;96265.73;1751607;82;21079;-65
2022/10/12 01:46:24;;;;;;;14.63;9.50;;;;;;;11.28;87.07;96271.84;1751434;82;21525;-65
2022/10/12 01:48:56;;;;;;;13.75;10.30;;;;;;;11.33;86.50;96264.75;1751880;82;21007;-65
2022/10/12 01:51:37;;;;;;;16.75;11.12;;;;;;;11.26;86.20;96274.49;1751442;82;21003;-65
2022/10/12 01:54:31;;;;;;;13.70;10.10;;;;;;;11.23;86.67;96274.08;1686410;82;20971;-65
2022/10/12 01:57:09;;;;;;;16.70;11.03;;;;;;;11.34;86.60;96277.05;1751479;82;20991;-65
2022/10/12 02:00:06;;;;;;;15.93;10.85;;;;;;;11.25;85.86;96278.03;1737978;82;21059;-65
2022/10/12 02:02:56;;;;;;;14.30;10.03;;;;;;;11.17;86.11;96278.56;1751766;82;21059;-65
2022/10/12 02:05:58;;;;;;;20.68;9.30;;;;;;;11.17;86.61;96274.16;1751655;82;21450;-65
2022/10/12 02:08:46;;;;;;;18.67;8.85;;;;;;;11.20;86.27;96274.56;1751720;82;21068;-65
2022/10/12 02:11:16;;;;;;;14.78;9.25;;;;;;;11.14;86.13;96282.56;1751668;82;21015;-65
2022/10/12 02:13:47;;;;;;;18.12;10.85;;;;;;;11.10;86.64;96283.47;1751777;82;21501;-65
2022/10/12 02:16:22;;;;;;;13.20;10.38;;;;;;;11.18;87.25;96280.30;1750836;82;21102;-65
2022/10/12 02:18:52;;;;;;;17.50;11.38;;;;;;;11.27;86.81;96282.86;1751352;82;20983;-65
2022/10/12 02:21:27;;;;;;;18.30;11.10;;;;;;;11.25;86.62;96276.72;1751770;81;21034;-65
2022/10/12 02:23:57;;;;;;;15.18;11.48;;;;;;;11.23;85.82;96273.20;1751756;82;20995;-65
2022/10/12 02:26:25;;;;;;;16.60;11.83;;;;;;;11.12;85.89;96280.38;1751752;82;21023;-65
2022/10/12 02:28:52;;;;;;;25.27;13.00;;;;;;;11.00;86.07;96290.15;1751839;82;21118;-65
2022/10/12 02:31:33;;;;;;;15.38;10.88;;;;;;;10.92;86.16;96283.20;1752014;82;20999;-65
2022/10/12 02:34:20;;;;;;;19.95;11.88;;;;;;;10.81;86.49;96281.98;1751375;82;21589;-65
2022/10/12 02:36:59;;;;;;;18.80;11.12;;;;;;;10.78;86.94;96280.21;1751924;82;21049;-65
2022/10/12 02:39:33;;;;;;;16.45;11.12;;;;;;;10.79;86.95;96278.02;1747774;82;21541;-65
2022/10/12 02:42:04;;;;;;;16.15;11.95;;;;;;;10.81;86.96;96283.30;1752038;82;21026;-65
2022/10/12 02:44:36;;;;;;;15.63;10.32;;;;;;;10.77;86.91;96283.75;1724543;82;21078;-65
2022/10/12 02:47:06;;;;;;;15.80;10.18;;;;;;;10.74;86.92;96285.11;1751952;82;21034;-65
2022/10/12 02:49:35;;;;;;;15.23;9.85;;;;;;;10.66;87.17;96282.98;1751933;82;21015;-65
2022/10/12 02:52:06;;;;;;;13.25;9.65;;;;;;;10.61;86.70;96280.38;1751902;82;21041;-65
2022/10/12 02:54:33;;;;;;;19.52;10.93;;;;;;;10.54;86.71;96284.39;1751817;82;21011;-65
2022/10/12 02:57:00;;;;;;;17.75;10.25;;;;;;;10.50;86.83;96286.16;1751818;82;21063;-65
2022/10/12 02:59:27;;;;;;;24.20;13.38;;;;;;;10.44;86.59;96278.30;1751724;82;21007;-65
2022/10/12 03:01:54;;;;;;;17.77;12.53;;;;;;;10.37;86.70;96286.69;1751757;82;21477;-65
2022/10/12 03:04:21;;;;;;;16.97;12.15;;;;;;;10.36;87.35;96278.80;1751590;82;21067;-65
2022/10/12 03:06:48;;;;;;;14.45;10.78;;;;;;;10.36;87.13;96288.04;1751769;82;21035;-65
2022/10/12 03:09:14;;;;;;;12.03;10.25;;;;;;;10.40;87.55;96289.30;1751498;82;21019;-65
2022/10/12 03:11:44;;;;;;;13.05;10.00;;;;;;;10.46;87.89;96282.23;1752038;82;21074;-65
2022/10/12 03:14:13;;;;;;;15.35;10.90;;;;;;;10.48;87.43;96284.00;1748844;82;21023;-65
2022/10/12 03:16:40;;;;;;;16.70;13.28;;;;;;;10.46;87.47;96276.95;1751852;82;20971;-65
2022/10/12 03:19:07;;;;;;;18.62;10.32;;;;;;;10.45;87.25;96280.48;1752015;82;21585;-65
2022/10/12 03:21:34;;;;;;;15.18;10.23;;;;;;;10.39;87.31;96277.01;1724133;82;21066;-65
2022/10/12 03:24:00;;;;;;;16.67;9.88;;;;;;;10.40;87.84;96276.11;1751638;82;21066;-65
2022/10/12 03:26:27;;;;;;;15.65;9.73;;;;;;;10.43;87.72;96275.20;1751928;82;21018;-65
2022/10/12 03:28:53;;;;;;;14.38;11.22;;;;;;;10.44;87.46;96274.80;1724345;82;21553;-65
2022/10/12 03:31:20;;;;;;;12.15;10.13;;;;;;;10.51;88.04;96277.83;1752000;82;21030;-65
2022/10/12 03:33:46;;;;;;;15.50;10.00;;;;;;;10.52;87.77;96279.11;1751703;82;21026;-64
2022/10/12 03:36:14;;;;;;;17.55;10.00;;;;;;;10.62;88.36;96275.96;1751751;82;21020;-65
2022/10/12 03:38:40;;;;;;;16.25;10.53;;;;;;;10.73;88.38;96281.15;1752015;82;21084;-65
2022/10/12 03:41:07;;;;;;;16.60;11.95;;;;;;;10.82;88.16;96277.99;1751672;82;21035;-65
2022/10/12 03:43:34;;;;;;;14.78;10.63;;;;;;;10.85;87.68;96279.73;1724207;82;20995;-65
2022/10/12 03:46:01;;;;;;;15.88;10.98;;;;;;;10.85;86.79;96274.90;1751815;82;21003;-65
2022/10/12 03:48:28;;;;;;;14.10;10.90;;;;;;;10.83;87.20;96272.27;1751805;82;21045;-65
2022/10/12 03:50:54;;;;;;;17.23;10.93;;;;;;;10.95;87.83;96276.56;1751429;82;21011;-65
2022/10/12 03:53:21;;;;;;;18.62;11.57;;;;;;;11.06;87.47;96273.37;1751794;82;21079;-65
2022/10/12 03:55:48;;;;;;;15.45;9.50;;;;;;;11.09;86.83;96277.32;1751781;82;21075;-65
2022/10/12 03:58:14;;;;;;;14.07;9.98;;;;;;;11.03;86.30;96280.00;1751862;82;20999;-65
2022/10/12 04:00:41;;;;;;;19.48;12.55;;;;;;;11.01;86.98;96276.50;1751890;82;21477;-65
2022/10/12 04:03:08;;;;;;;20.65;14.38;;;;;;;11.02;86.34;96279.59;1751880;82;21042;-65
2022/10/12 04:05:34;;;;;;;20.30;12.68;;;;;;;10.94;86.80;96277.47;1751198;82;21003;-65
2022/10/12 04:08:01;;;;;;;18.45;10.70;;;;;;;10.94;86.80;96282.30;1751993;82;21055;-65
2022/10/12 04:10:28;;;;;;;14.03;11.25;;;;;;;10.90;86.19;96282.33;1751879;82;21040;-65
2022/10/12 04:12:56;;;;;;;21.68;12.93;;;;;;;10.81;86.15;96284.17;1751526;82;21071;-64
2022/10/12 04:15:23;;;;;;;42.27;28.38;;;;;;;10.73;86.02;96282.02;1751846;82;20974;-65
2022/10/12 04:17:49;;;;;;;15.93;11.03;;;;;;;10.73;86.29;96287.75;1751531;82;21099;-65
2022/10/12 04:20:16;;;;;;;12.55;10.90;;;;;;;10.81;87.37;96288.13;1751807;82;20995;-65
2022/10/12 04:22:43;;;;;;;18.30;11.80;;;;;;;10.90;87.20;96279.24;1751467;82;21106;-65
2022/10/12 04:25:11;;;;;;;24.00;17.40;;;;;;;10.93;86.91;96286.26;1751672;82;21477;-65
2022/10/12 04:27:38;;;;;;;31.25;19.37;;;;;;;10.94;86.97;96291.99;1751868;82;21015;-65
2022/10/12 04:30:06;;;;;;;82.62;51.25;;;;;;;11.03;87.34;96295.39;1751790;82;21109;-65
2022/10/12 04:32:33;;;;;;;46.47;31.03;;;;;;;11.11;86.83;96294.00;1751664;82;21071;-65
2022/10/12 04:34:59;;;;;;;37.73;23.05;;;;;;;11.08;86.61;96285.25;1751995;82;21002;-65
2022/10/12 04:37:27;;;;;;;20.17;12.23;;;;;;;11.13;86.52;96285.62;1751894;82;20999;-65
2022/10/12 04:39:53;;;;;;;19.05;12.37;;;;;;;11.09;86.23;96290.95;1751957;82;20971;-65
2022/10/12 04:42:20;;;;;;;22.13;14.05;;;;;;;11.10;86.71;96288.30;1751886;82;21054;-65
2022/10/12 04:44:46;;;;;;;20.92;16.30;;;;;;;11.12;86.53;96285.66;1751508;82;20987;-65
2022/10/12 04:47:13;;;;;;;20.05;13.55;;;;;;;11.10;86.04;96290.95;1751253;82;21075;-65
2022/10/12 04:49:40;;;;;;;11.73;8.43;;;;;;;11.03;85.86;96287.92;1751616;82;20995;-65
2022/10/12 04:52:06;;;;;;;12.53;8.75;;;;;;;10.99;85.90;96295.02;1751908;82;21011;-66
2022/10/12 04:54:33;;;;;;;16.82;10.20;;;;;;;11.03;86.30;96296.72;1751375;82;21038;-66
2022/10/12 04:57:00;;;;;;;31.27;10.35;;;;;;;11.08;86.57;96302.41;1751901;82;21019;-65
2022/10/12 04:59:27;;;;;;;24.75;13.88;;;;;;;11.19;87.11;96297.47;1751016;82;21010;-67
2022/10/12 05:01:53;;;;;;;18.87;13.62;;;;;;;11.26;86.35;96299.17;1751204;82;21042;-65
2022/10/12 05:04:20;;;;;;;21.50;15.08;;;;;;;11.32;86.18;96305.28;1750605;82;21114;-66
2022/10/12 05:06:46;;;;;;;19.98;15.40;;;;;;;11.26;85.43;96304.87;1751034;82;21120;-64
2022/10/12 05:09:13;;;;;;;25.88;16.12;;;;;;;11.29;86.22;96305.28;1750814;82;21066;-70
2022/10/12 05:11:40;;;;;;;26.52;16.45;;;;;;;11.35;86.19;96309.20;1750825;82;21042;-71
2022/10/12 05:14:08;;;;;;;25.88;13.90;;;;;;;11.41;85.93;96319.70;1751162;82;21003;-64
2022/10/12 05:16:35;;;;;;;18.23;13.68;;;;;;;11.33;84.94;96316.27;1751470;82;21540;-67
2022/10/12 05:19:02;;;;;;;16.15;12.18;;;;;;;11.24;85.05;96321.20;1735952;82;21073;-65
2022/10/12 05:21:29;;;;;;;14.90;12.18;;;;;;;11.14;84.89;96330.11;1704673;83;21090;-68
2022/10/12 05:23:55;;;;;;;22.25;14.55;;;;;;;11.04;85.40;96327.98;1702259;82;21052;-65
2022/10/12 05:26:22;;;;;;;19.02;16.05;;;;;;;10.94;85.97;96321.91;1700393;84;21026;-69
2022/10/12 05:28:49;;;;;;;18.87;13.75;;;;;;;10.88;86.22;96320.62;1700361;84;20996;-69
2022/10/12 05:31:16;;;;;;;18.27;14.73;;;;;;;10.81;86.02;96324.22;1700880;84;21075;-67
2022/10/12 05:33:43;;;;;;;19.17;14.25;;;;;;;10.76;86.30;96324.67;1717489;83;21129;-67
2022/10/12 05:36:09;;;;;;;21.70;14.58;;;;;;;10.77;86.70;96323.35;1692790;85;21079;-67
2022/10/12 05:38:37;;;;;;;20.57;15.35;;;;;;;10.82;87.00;96325.96;1717780;83;21193;-69
2022/10/12 05:41:04;;;;;;;19.87;15.38;;;;;;;10.85;87.04;96329.02;1692121;85;21101;-66
2022/10/12 05:43:31;;;;;;;19.85;15.38;;;;;;;10.86;86.96;96333.40;1692299;85;21039;-65
2022/10/12 05:45:58;;;;;;;19.40;14.55;;;;;;;10.87;87.06;96332.08;1692524;85;22181;-68
2022/10/12 05:48:24;;;;;;;23.85;14.40;;;;;;;10.90;87.13;96336.01;1700697;84;21077;-66
2022/10/12 05:50:53;;;;;;;19.85;13.72;;;;;;;10.91;87.50;96336.88;1700398;84;21016;-66
2022/10/12 05:53:21;;;;;;;20.75;15.75;;;;;;;10.88;87.46;96330.30;1699945;84;21121;-66
2022/10/12 05:55:56;;;;;;;34.83;27.37;;;;;;;10.85;87.46;96327.70;1700681;84;21051;-67
2022/10/12 05:58:24;;;;;;;64.70;49.05;;;;;;;10.79;87.95;96336.09;1699964;84;21066;-68
2022/10/12 06:00:50;;;;;;;31.45;25.37;;;;;;;10.83;88.13;96340.48;1700291;84;21038;-65
2022/10/12 06:03:17;;;;;;;42.75;31.70;;;;;;;10.92;88.39;96342.61;1708197;82;21043;-67
2022/10/12 06:05:44;;;;;;;34.03;23.42;;;;;;;11.04;88.52;96342.06;1707257;83;21437;-69
2022/10/12 06:08:11;;;;;;;27.62;19.35;;;;;;;11.13;88.32;96344.19;1686640;85;21069;-66
2022/10/12 06:10:46;;;;;;;32.25;22.35;;;;;;;11.22;88.26;96344.98;1701435;82;21066;-65
2022/10/12 06:13:13;;;;;;;28.98;22.07;;;;;;;11.29;88.15;96355.06;1710591;82;21042;-73
2022/10/12 06:15:40;;;;;;;28.55;20.43;;;;;;;11.42;88.41;96354.05;1711999;82;20998;-67
2022/10/12 06:18:06;;;;;;;26.95;19.87;;;;;;;11.55;88.28;96350.83;1704083;83;21074;-74
2022/10/12 06:20:33;;;;;;;21.50;16.82;;;;;;;11.66;87.76;96357.31;1704299;83;21066;-68
2022/10/12 06:22:59;;;;;;;20.48;15.38;;;;;;;11.74;87.64;96352.81;1726588;83;21078;-74
2022/10/12 06:25:27;;;;;;;25.12;14.30;;;;;;;11.83;87.49;96359.79;1731030;83;21529;-74
2022/10/12 06:27:53;;;;;;;17.52;13.65;;;;;;;11.94;87.36;96359.69;1731063;83;20995;-66
2022/10/12 06:30:20;;;;;;;18.40;12.75;;;;;;;11.96;86.69;96357.45;1730791;83;21003;-66
2022/10/12 06:32:47;;;;;;;21.62;16.42;;;;;;;11.99;86.87;96356.55;1730303;82;21050;-69
2022/10/12 06:35:14;;;;;;;35.20;25.57;;;;;;;12.06;87.06;96363.52;1730278;83;20991;-78
2022/10/12 06:37:44;;;;;;;22.90;17.45;;;;;;;12.14;86.68;96361.64;1729779;83;21169;-67
2022/10/12 06:40:12;;;;;;;29.48;20.08;;;;;;;12.22;86.30;96360.22;1729600;83;21047;-68
2022/10/12 06:42:40;;;;;;;19.35;14.85;;;;;;;12.24;86.36;96354.02;1730981;83;21619;-70
2022/10/12 06:45:07;;;;;;;19.37;13.75;;;;;;;12.43;87.04;96361.28;1729931;83;21057;-67
2022/10/12 06:47:34;;;;;;;17.80;13.22;;;;;;;12.58;86.79;96354.03;1730988;83;21612;-66
2022/10/12 06:50:01;;;;;;;17.10;12.98;;;;;;;12.75;86.78;96356.86;1730748;83;21121;-72
2022/10/12 06:52:27;;;;;;;20.82;13.10;;;;;;;12.87;85.68;96350.48;1730997;83;21042;-73
2022/10/12 06:54:54;;;;;;;20.70;13.00;;;;;;;13.02;86.20;96352.47;1730584;82;20999;-70
2022/10/12 06:57:21;;;;;;;18.45;12.98;;;;;;;13.17;85.71;96350.89;1730202;82;21113;-67
2022/10/12 06:59:47;;;;;;;17.90;13.28;;;;;;;13.35;85.73;96361.20;1730581;83;21113;-69
2022/10/12 07:02:14;;;;;;;15.90;12.68;;;;;;;13.40;84.89;96353.17;1730787;83;21545;-71
2022/10/12 07:04:40;;;;;;;21.90;13.45;;;;;;;13.47;84.51;96354.83;1731225;83;21075;-68
2022/10/12 07:07:07;;;;;;;17.95;13.53;;;;;;;13.58;84.15;96355.52;1730655;83;21018;-69
2022/10/12 07:09:34;;;;;;;19.17;14.30;;;;;;;13.65;82.42;96348.31;1730297;82;21074;-68
2022/10/12 07:12:00;;;;;;;50.78;31.30;;;;;;;13.66;82.77;96348.75;1730565;82;20983;-70
2022/10/12 07:14:27;;;;;;;21.60;15.28;;;;;;;13.79;83.32;96346.28;1730474;82;21117;-69
2022/10/12 07:16:53;;;;;;;23.47;14.78;;;;;;;13.83;81.86;96347.09;1730975;83;21556;-69
2022/10/12 07:19:20;;;;;;;20.10;13.95;;;;;;;13.84;81.08;96343.55;1730932;83;21066;-69
2022/10/12 07:21:47;;;;;;;19.30;14.65;;;;;;;13.84;81.08;96343.55;1729615;83;22335;-69
2022/10/12 07:24:13;;;;;;;19.07;14.30;;;;;;;13.85;81.44;96348.80;1730997;83;21512;-69
2022/10/12 07:26:40;;;;;;;18.37;13.22;;;;;;;13.85;81.03;96347.48;1730553;83;21070;-69
2022/10/12 07:29:07;;;;;;;16.27;11.78;;;;;;;13.92;81.60;96352.22;1730823;82;21014;-69
2022/10/12 07:31:34;;;;;;;29.15;26.07;;;;;;;13.99;81.02;96349.87;1731358;83;21022;-68
2022/10/12 07:34:00;;;;;;;21.00;16.23;;;;;;;14.01;81.09;96347.17;1730440;83;21145;-81
2022/10/12 07:36:28;;;;;;;17.82;13.22;;;;;;;14.18;80.61;96343.72;1734555;82;21553;-67
2022/10/12 07:38:55;;;;;;;15.78;12.93;;;;;;;14.18;80.61;96343.72;1706037;84;21077;-70
2022/10/12 07:41:21;;;;;;;18.20;12.98;;;;;;;14.29;80.44;96342.20;1736139;83;21030;-70
2022/10/12 07:43:55;;;;;;;18.07;13.78;;;;;;;14.29;80.44;96342.20;1706523;84;20991;-70
2022/10/12 07:46:24;;;;;;;17.30;12.88;;;;;;;14.38;80.28;96343.31;1737597;83;21496;-73
2022/10/12 07:48:50;;;;;;;21.30;12.25;;;;;;;14.46;80.18;96339.16;1706665;84;21014;-68
2022/10/12 07:51:17;;;;;;;20.40;12.82;;;;;;;14.46;79.43;96328.53;1704990;83;21086;-73
2022/10/12 07:53:44;;;;;;;14.23;12.37;;;;;;;14.56;79.30;96340.73;1736931;83;20991;-70
2022/10/12 07:56:15;;;;;;;18.67;12.25;;;;;;;14.56;77.88;96342.06;1705482;84;21090;-68
2022/10/12 07:58:51;;;;;;;16.67;11.12;;;;;;;14.66;78.58;96340.94;1705325;84;21554;-66
2022/10/12 08:01:19;;;;;;;15.13;10.43;;;;;;;14.78;78.58;96337.60;1737216;83;21042;-66
2022/10/12 08:03:47;;;;;;;32.88;18.87;;;;;;;14.93;78.84;96334.58;1705608;83;21061;-65
2022/10/12 08:06:21;;;;;;;14.07;10.85;;;;;;;15.08;78.29;96334.20;1736474;83;21504;-66
2022/10/12 08:08:48;;;;;;;15.53;11.12;;;;;;;15.24;78.66;96335.16;1707568;84;21531;-69
2022/10/12 08:11:16;;;;;;;16.35;10.08;;;;;;;15.39;77.76;96330.78;1736405;83;21165;-68
2022/10/12 08:13:43;;;;;;;16.23;11.20;;;;;;;15.50;76.68;96335.84;1705722;84;21023;-66
2022/10/12 08:16:17;;;;;;;11.75;10.32;;;;;;;15.60;76.50;96332.02;1737572;83;21579;-65
2022/10/12 08:18:44;;;;;;;16.30;10.45;;;;;;;15.67;75.35;96336.70;1731833;83;21069;-66
2022/10/12 08:21:16;;;;;;;16.50;11.08;;;;;;;15.76;75.42;96329.85;1732379;82;21007;-66
2022/10/12 08:23:44;;;;;;;17.77;11.40;;;;;;;15.85;74.62;96328.70;1728988;82;21078;-66
2022/10/12 08:26:12;;;;;;;13.80;11.50;;;;;;;15.91;74.86;96324.56;1728565;83;21074;-66
2022/10/12 08:28:39;;;;;;;15.68;11.45;;;;;;;16.01;74.89;96326.05;1728067;82;21053;-66
2022/10/12 08:31:10;;;;;;;19.77;12.78;;;;;;;16.13;74.69;96316.85;1728890;82;21473;-66
2022/10/12 08:33:37;;;;;;;19.20;12.80;;;;;;;16.19;72.72;96319.33;1728913;83;21011;-71
2022/10/12 08:36:06;;;;;;;18.73;12.05;;;;;;;16.17;72.76;96320.69;1728293;83;21793;-68
2022/10/12 08:38:37;;;;;;;15.48;12.18;;;;;;;16.21;72.65;96319.70;1728591;83;21525;-72
2022/10/12 08:41:14;;;;;;;14.58;11.45;;;;;;;16.25;72.30;96316.47;1727598;83;21088;-69
2022/10/12 08:43:55;;;;;;;19.02;12.58;;;;;;;16.26;72.07;96316.90;1728072;83;21014;-67
2022/10/12 08:46:25;;;;;;;19.85;13.40;;;;;;;16.23;72.16;96314.34;1727861;83;21085;-67
2022/10/12 08:49:04;;;;;;;15.83;12.58;;;;;;;16.19;72.29;96321.52;1728587;82;21074;-68
2022/10/12 08:51:35;;;;;;;13.75;11.85;;;;;;;16.20;72.19;96315.30;1728130;83;21093;-69
2022/10/12 08:54:12;;;;;;;23.42;12.78;;;;;;;16.22;71.71;96314.77;1728902;83;22197;-67
2022/10/12 08:56:40;;;;;;;18.25;12.18;;;;;;;16.30;72.64;96320.33;1728558;82;21085;-68
2022/10/12 08:59:16;;;;;;;20.10;12.90;;;;;;;16.31;70.68;96323.42;1728543;83;21244;-68
2022/10/12 09:02:06;;;;;;;15.80;13.03;;;;;;;16.21;69.41;96322.36;1728731;82;21022;-68
2022/10/12 09:04:41;;;;;;;14.33;12.70;;;;;;;16.31;71.00;96320.77;1727927;82;21057;-69
2022/10/12 09:07:32;;;;;;;23.87;16.37;;;;;;;16.27;70.15;96317.30;1723873;83;21541;-69
2022/10/12 09:10:30;;;;;;;16.07;12.13;;;;;;;16.21;69.97;96317.50;1668588;85;21120;-71
2022/10/12 09:13:17;;;;;;;19.17;12.15;;;;;;;16.17;70.58;96319.82;1723392;82;21042;-70
2022/10/12 09:15:52;;;;;;;15.13;11.45;;;;;;;16.26;71.52;96322.23;1723403;82;20990;-69
2022/10/12 09:18:39;;;;;;;20.15;12.90;;;;;;;16.32;71.33;96319.37;1724069;83;21092;-69
2022/10/12 09:21:10;;;;;;;17.57;13.48;;;;;;;16.36;69.54;96325.50;1723027;83;21031;-69
2022/10/12 09:23:43;;;;;;;17.02;13.25;;;;;;;16.39;70.04;96326.73;1718447;82;21011;-69
2022/10/12 09:26:19;;;;;;;16.85;12.65;;;;;;;16.36;69.47;96321.03;1716330;83;21023;-69
2022/10/12 09:28:53;;;;;;;16.65;12.25;;;;;;;16.34;69.98;96324.66;1716429;84;21516;-69
2022/10/12 09:31:58;;;;;;;14.28;11.78;;;;;;;16.38;70.08;96326.33;1715577;83;21019;-68
2022/10/12 09:34:25;;;;;;;16.97;12.30;;;;;;;16.43;69.63;96325.73;1714938;84;21540;-67
2022/10/12 09:36:52;;;;;;;14.95;12.30;;;;;;;16.52;69.85;96324.10;1715638;83;21461;-68
2022/10/12 09:39:27;;;;;;;25.95;19.67;;;;;;;16.54;69.36;96326.27;1715671;83;21051;-69
2022/10/12 09:41:53;;;;;;;20.02;17.07;;;;;;;16.62;69.47;96322.90;1715701;84;21024;-68
2022/10/12 09:44:55;;;;;;;16.27;12.55;;;;;;;16.64;68.33;96318.41;1716129;83;21532;-69
2022/10/12 09:47:31;;;;;;;22.52;15.45;;;;;;;16.65;69.28;96321.47;1716065;83;21004;-69
2022/10/12 09:50:04;;;;;;;19.67;15.00;;;;;;;16.67;68.01;96321.43;1716149;84;21050;-69
2022/10/12 09:52:41;;;;;;;17.50;14.20;;;;;;;16.73;69.02;96317.27;1716331;83;21046;-69
2022/10/12 09:55:17;;;;;;;16.97;12.05;;;;;;;16.84;68.24;96318.28;1716176;83;20999;-70
2022/10/12 09:57:55;;;;;;;16.52;11.97;;;;;;;16.90;68.11;96318.54;1716328;83;20976;-69
2022/10/12 10:00:32;;;;;;;16.37;12.37;;;;;;;17.01;68.78;96315.05;1716319;83;21027;-69
2022/10/12 10:03:01;;;;;;;16.50;12.75;;;;;;;17.06;67.75;96311.81;1716038;83;21031;-69
2022/10/12 10:05:34;;;;;;;17.57;11.53;;;;;;;17.16;68.34;96302.58;1716358;83;21035;-69
2022/10/12 10:08:22;;;;;;;19.75;12.40;;;;;;;17.25;67.83;96307.59;1716296;83;21047;-69
2022/10/12 10:10:58;;;;;;;15.78;11.33;;;;;;;17.22;67.54;96307.70;1716265;83;21019;-69
2022/10/12 10:13:31;;;;;;;13.18;11.12;;;;;;;17.26;68.06;96305.34;1716413;84;21497;-69
2022/10/12 10:16:09;;;;;;;14.40;11.15;;;;;;;17.31;68.46;96311.84;1716525;83;21062;-69
2022/10/12 10:18:47;;;;;;;16.42;11.88;;;;;;;17.38;68.69;96306.70;1716220;84;20996;-69
2022/10/12 10:21:36;;;;;;;26.02;21.35;;;;;;;17.41;68.21;96302.63;1716651;84;21517;-69
2022/10/12 10:24:07;;;;;;;15.63;11.83;;;;;;;17.44;68.26;96304.31;1696740;83;21565;-69
2022/10/12 10:27:02;;;;;;;16.50;11.28;;;;;;;17.42;68.08;96306.16;1695752;83;21023;-69
2022/10/12 10:29:39;;;;;;;17.65;12.18;;;;;;;17.37;68.28;96306.31;1724155;83;21415;-69
2022/10/12 10:32:26;;;;;;;14.35;10.85;;;;;;;17.30;68.41;96300.77;1724387;82;21055;-69
2022/10/12 10:35:14;;;;;;;15.95;10.90;;;;;;;17.22;68.48;96303.70;1724676;82;21461;-69
2022/10/12 10:37:51;;;;;;;19.07;12.05;;;;;;;17.14;68.72;96300.89;1723564;83;21075;-69
2022/10/12 10:40:30;;;;;;;15.88;13.22;;;;;;;17.04;68.61;96305.18;1724525;82;21038;-69
2022/10/12 10:43:08;;;;;;;18.98;11.35;;;;;;;16.94;68.93;96309.53;1724264;83;21562;-69
2022/10/12 10:45:43;;;;;;;14.90;11.43;;;;;;;16.84;68.88;96311.16;1724085;83;20999;-69
2022/10/12 10:48:17;;;;;;;14.28;11.88;;;;;;;16.77;69.28;96308.70;1723570;83;21018;-69
2022/10/12 10:50:55;;;;;;;14.90;12.55;;;;;;;16.69;69.58;96306.27;1724320;82;21019;-69
2022/10/12 10:53:25;;;;;;;16.77;12.75;;;;;;;16.60;69.59;96299.89;1724484;83;21059;-68
2022/10/12 10:56:08;;;;;;;20.05;12.37;;;;;;;16.58;69.92;96301.72;1724377;83;21031;-69
2022/10/12 10:58:51;;;;;;;18.65;11.63;;;;;;;16.58;70.21;96299.05;1724491;83;21006;-69
2022/10/12 11:01:48;;;;;;;17.80;15.10;;;;;;;16.61;70.62;96291.00;1707594;83;21039;-69
2022/10/12 11:04:23;;;;;;;24.37;19.42;;;;;;;16.65;71.05;96295.28;1724642;83;20993;-68
2022/10/12 11:06:54;;;;;;;16.07;13.58;;;;;;;16.67;70.58;96286.80;1723154;83;21038;-69
2022/10/12 11:09:40;;;;;;;22.00;18.12;;;;;;;16.69;70.45;96290.75;1724632;82;20995;-69
2022/10/12 11:12:24;;;;;;;26.27;17.65;;;;;;;16.74;70.36;96288.81;1694875;83;21000;-69
2022/10/12 11:14:56;;;;;;;20.95;14.03;;;;;;;16.76;70.03;96290.51;1724092;82;21532;-69
2022/10/12 11:17:27;;;;;;;21.73;15.25;;;;;;;16.85;70.63;96289.36;1724386;82;21513;-69
2022/10/12 11:20:32;;;;;;;113.85;64.25;;;;;;;16.86;69.83;96288.46;1724451;82;21003;-69
2022/10/12 11:23:25;;;;;;;53.40;34.20;;;;;;;16.88;69.65;96286.59;1724036;82;21517;-69
2022/10/12 11:26:12;;;;;;;17.55;14.95;;;;;;;17.17;70.22;96285.64;1668849;83;21512;-69
2022/10/12 11:28:40;;;;;;;29.15;19.23;;;;;;;17.17;70.22;96285.64;1724484;82;21023;-69
2022/10/12 11:31:15;;;;;;;64.25;49.58;;;;;;;17.23;68.75;96285.89;1724427;82;20988;-69
2022/10/12 11:33:43;;;;;;;17.57;13.35;;;;;;;17.27;68.62;96288.41;1724372;82;21038;-69
2022/10/12 11:36:14;;;;;;;17.82;12.20;;;;;;;17.37;68.43;96282.77;1724221;83;21122;-69
2022/10/12 11:39:00;;;;;;;18.80;12.55;;;;;;;17.35;67.93;96285.48;1724263;83;21011;-69